Time;durP1;ratioP1;P1;durP2;ratioP2;P2;SDS_P1;SDS_P2;PMS_P1;PMS_P2;Temp;Humidity;BMP_temperature;BMP_pressure;BME280_temperature;BME280_humidity;BME280_pressure;Samples;Min_cycle;Max_cycle;Signal;HPM_P1;HPM_P2
2024/04/11 00:01:28;;;;;;;3.28;0.20;;;;;;;;;;5336759;26;95787;-45
2024/04/11 00:03:55;;;;;;;4.78;0.32;;;;;;;;;;5333190;26;96279;-46
2024/04/11 00:06:20;;;;;;;4.60;0.40;;;;;;;;;;5335515;26;95851;-45
2024/04/11 00:08:45;;;;;;;5.65;0.30;;;;;;;;;;5324511;26;96004;-45
2024/04/11 00:11:12;;;;;;;5.72;0.20;;;;;;;;;;5331504;26;100059;-45
2024/04/11 00:13:38;;;;;;;3.97;0.22;;;;;;;;;;5334342;26;95756;-45
2024/04/11 00:16:04;;;;;;;4.53;0.30;;;;;;;;;;5322453;26;97790;-45
2024/04/11 00:18:30;;;;;;;7.53;0.88;;;;;;;;;;5332197;26;96190;-45
2024/04/11 00:20:55;;;;;;;5.80;0.40;;;;;;;;;;5335459;26;95831;-45
2024/04/11 00:23:22;;;;;;;5.13;0.30;;;;;;;;;;5345692;26;97259;-45
2024/04/11 00:25:58;;;;;;;7.05;0.40;;;;;;;;;;5329590;26;96025;-45
2024/04/11 00:28:25;;;;;;;4.68;0.30;;;;;;;;;;5335954;26;97221;-45
2024/04/11 00:30:51;;;;;;;5.63;0.43;;;;;;;;;;5335135;26;96153;-45
2024/04/11 00:33:16;;;;;;;7.35;0.70;;;;;;;;;;5317188;26;95832;-45
2024/04/11 00:35:42;;;;;;;6.57;0.52;;;;;;;;;;5336007;26;96205;-49
2024/04/11 00:38:10;;;;;;;4.15;0.50;;;;;;;;;;5334049;26;95938;-49
2024/04/11 00:40:36;;;;;;;7.78;0.40;;;;;;;;;;5336369;26;95417;-45
2024/04/11 00:43:01;;;;;;;5.57;0.22;;;;;;;;;;5335250;26;96016;-45
2024/04/11 00:45:27;;;;;;;6.93;0.22;;;;;;;;;;5339520;26;96944;-45
2024/04/11 00:47:52;;;;;;;5.97;0.40;;;;;;;;;;5336739;26;96007;-45
2024/04/11 00:50:18;;;;;;;8.05;0.30;;;;;;;;;;5321489;26;96361;-45
2024/04/11 00:52:45;;;;;;;5.78;1.15;;;;;;;;;;5336766;26;95629;-45
2024/04/11 00:55:12;;;;;;;5.47;0.28;;;;;;;;;;5336700;26;96007;-45
2024/04/11 00:57:37;;;;;;;3.65;0.20;;;;;;;;;;5322762;26;97396;-44
2024/04/11 01:00:06;;;;;;;3.72;0.55;;;;;;;;;;5336618;26;95881;-44
2024/04/11 01:02:32;;;;;;;6.63;0.30;;;;;;;;;;5336113;26;96082;-43
2024/04/11 01:05:00;;;;;;;5.72;0.30;;;;;;;;;;5317352;26;98777;-44
2024/04/11 01:07:26;;;;;;;8.90;0.38;;;;;;;;;;5324398;26;95886;-44
2024/04/11 01:09:51;;;;;;;13.50;0.63;;;;;;;;;;5338710;26;96096;-44
2024/04/11 01:12:17;;;;;;;5.20;0.43;;;;;;;;;;5333882;26;96031;-44
2024/04/11 01:14:46;;;;;;;4.32;0.30;;;;;;;;;;5334932;26;96036;-44
2024/04/11 01:17:20;;;;;;;4.68;0.43;;;;;;;;;;5334022;26;95979;-44
2024/04/11 01:19:47;;;;;;;5.82;0.30;;;;;;;;;;5334401;26;96529;-44
2024/04/11 01:22:13;;;;;;;6.88;0.60;;;;;;;;;;5334072;26;96237;-44
2024/04/11 01:24:40;;;;;;;7.22;0.50;;;;;;;;;;5323188;26;97372;-43
2024/04/11 01:27:07;;;;;;;3.20;0.40;;;;;;;;;;5330444;26;96586;-44
2024/04/11 01:29:35;;;;;;;7.57;0.40;;;;;;;;;;5333930;26;96039;-44
2024/04/11 01:32:03;;;;;;;4.00;0.25;;;;;;;;;;5333560;26;95871;-44
2024/04/11 01:34:30;;;;;;;8.27;0.38;;;;;;;;;;5334642;26;96045;-44
2024/04/11 01:36:58;;;;;;;7.93;0.40;;;;;;;;;;5333754;26;96070;-44
2024/04/11 01:39:24;;;;;;;6.45;0.40;;;;;;;;;;5334189;26;96075;-44
2024/04/11 01:41:50;;;;;;;6.45;0.30;;;;;;;;;;5324426;26;95972;-49
2024/04/11 01:44:15;;;;;;;6.10;0.22;;;;;;;;;;5333623;26;96014;-49
2024/04/11 01:46:40;;;;;;;5.60;0.30;;;;;;;;;;5333852;26;95593;-44
2024/04/11 01:49:06;;;;;;;3.78;0.20;;;;;;;;;;5333975;26;97214;-44
2024/04/11 01:51:31;;;;;;;7.20;0.40;;;;;;;;;;5336695;26;96039;-44
2024/04/11 01:53:56;;;;;;;5.70;0.30;;;;;;;;;;5334768;26;97219;-44
2024/04/11 01:56:25;;;;;;;4.95;0.40;;;;;;;;;;5332966;26;96081;-44
2024/04/11 01:58:50;;;;;;;6.85;0.40;;;;;;;;;;5326693;26;95859;-44
2024/04/11 02:01:19;;;;;;;9.15;0.50;;;;;;;;;;5333863;26;95949;-44
2024/04/11 02:03:44;;;;;;;6.28;0.40;;;;;;;;;;5332834;26;96090;-44
2024/04/11 02:06:11;;;;;;;6.40;0.30;;;;;;;;;;5334529;26;95736;-48
2024/04/11 02:08:37;;;;;;;5.00;0.55;;;;;;;;;;5314458;26;99370;-49
2024/04/11 02:11:04;;;;;;;3.63;0.20;;;;;;;;;;5301387;26;96139;-44
2024/04/11 02:13:29;;;;;;;6.50;0.20;;;;;;;;;;5300031;26;95986;-44
2024/04/11 02:15:55;;;;;;;6.65;0.30;;;;;;;;;;5300016;26;97433;-43
2024/04/11 02:18:20;;;;;;;6.00;0.30;;;;;;;;;;5302972;26;97242;-44
2024/04/11 02:20:47;;;;;;;6.07;0.40;;;;;;;;;;5302636;26;96033;-44
2024/04/11 02:23:13;;;;;;;4.18;0.35;;;;;;;;;;5302654;26;96246;-44
2024/04/11 02:25:39;;;;;;;4.70;0.50;;;;;;;;;;5318516;26;97336;-44
2024/04/11 02:28:05;;;;;;;3.33;0.30;;;;;;;;;;5301272;26;95479;-44
2024/04/11 02:30:31;;;;;;;2.88;0.45;;;;;;;;;;5301864;26;96080;-51
2024/04/11 02:32:56;;;;;;;5.57;0.63;;;;;;;;;;5296742;26;98840;-50
2024/04/11 02:35:22;;;;;;;6.65;0.52;;;;;;;;;;5299677;26;96192;-45
2024/04/11 02:37:51;;;;;;;5.95;0.75;;;;;;;;;;5301807;26;97483;-45
2024/04/11 02:40:17;;;;;;;3.70;0.35;;;;;;;;;;5297363;26;97956;-44
2024/04/11 02:42:42;;;;;;;4.97;0.40;;;;;;;;;;5298142;26;96268;-45
2024/04/11 02:45:08;;;;;;;5.45;0.57;;;;;;;;;;5300431;26;98051;-45
2024/04/11 02:47:36;;;;;;;5.57;1.08;;;;;;;;;;5299910;26;96087;-53
2024/04/11 02:50:02;;;;;;;4.00;0.40;;;;;;;;;;5298296;26;95944;-51
2024/04/11 02:52:28;;;;;;;3.83;0.43;;;;;;;;;;5297831;26;96000;-45
2024/04/11 02:54:54;;;;;;;5.07;0.50;;;;;;;;;;5303354;26;98085;-45
2024/04/11 02:57:19;;;;;;;4.88;0.40;;;;;;;;;;5298919;26;96060;-45
2024/04/11 02:59:45;;;;;;;6.40;0.65;;;;;;;;;;5296946;26;96068;-45
2024/04/11 03:02:11;;;;;;;3.28;0.50;;;;;;;;;;5298234;26;96317;-45
2024/04/11 03:04:37;;;;;;;6.97;1.17;;;;;;;;;;5298688;26;96151;-45
2024/04/11 03:07:02;;;;;;;7.32;0.50;;;;;;;;;;5288754;26;97477;-45
2024/04/11 03:09:28;;;;;;;4.40;0.40;;;;;;;;;;5310317;26;96143;-45
2024/04/11 03:11:53;;;;;;;5.43;0.65;;;;;;;;;;5316331;26;95917;-45
2024/04/11 03:14:18;;;;;;;5.55;0.70;;;;;;;;;;5297095;26;99160;-45
2024/04/11 03:16:43;;;;;;;5.57;0.60;;;;;;;;;;5308885;26;97091;-44
2024/04/11 03:19:09;;;;;;;5.78;0.60;;;;;;;;;;5302255;26;97424;-44
2024/04/11 03:21:34;;;;;;;4.65;0.90;;;;;;;;;;5292939;26;102463;-45
2024/04/11 03:23:59;;;;;;;7.80;1.08;;;;;;;;;;5293273;26;95982;-45
2024/04/11 03:26:25;;;;;;;10.88;0.68;;;;;;;;;;5300340;26;96050;-45
2024/04/11 03:28:50;;;;;;;7.05;0.47;;;;;;;;;;5299061;26;96073;-44
2024/04/11 03:31:18;;;;;;;4.85;0.50;;;;;;;;;;5302889;26;95518;-44
2024/04/11 03:33:46;;;;;;;5.70;0.60;;;;;;;;;;5305727;26;95949;-44
2024/04/11 03:36:15;;;;;;;5.95;0.50;;;;;;;;;;5299491;26;96683;-45
2024/04/11 03:38:40;;;;;;;4.65;0.65;;;;;;;;;;5326492;26;95818;-44
2024/04/11 03:41:10;;;;;;;8.10;0.70;;;;;;;;;;5297147;26;98716;-44
2024/04/11 03:43:37;;;;;;;6.85;0.77;;;;;;;;;;5301060;26;96192;-44
2024/04/11 03:46:06;;;;;;;3.90;0.40;;;;;;;;;;5305289;26;96093;-44
2024/04/11 03:48:32;;;;;;;3.58;0.45;;;;;;;;;;5336226;26;96060;-44
2024/04/11 03:50:57;;;;;;;6.75;1.20;;;;;;;;;;5314974;26;96007;-44
2024/04/11 03:53:23;;;;;;;5.90;0.45;;;;;;;;;;5286046;26;96567;-44
2024/04/11 03:55:48;;;;;;;4.22;0.50;;;;;;;;;;5291816;26;97219;-44
2024/04/11 03:58:16;;;;;;;6.78;0.60;;;;;;;;;;5299136;26;95833;-44
2024/04/11 04:00:45;;;;;;;4.20;0.60;;;;;;;;;;5281566;26;96904;-45
2024/04/11 04:03:11;;;;;;;4.77;0.70;;;;;;;;;;5290415;26;99037;-44
2024/04/11 04:05:37;;;;;;;3.90;0.80;;;;;;;;;;5294909;26;98059;-50
2024/04/11 04:08:04;;;;;;;5.72;0.75;;;;;;;;;;5308741;26;96648;-50
2024/04/11 04:10:31;;;;;;;5.13;1.00;;;;;;;;;;5338517;26;95651;-45
2024/04/11 04:12:58;;;;;;;2.78;0.68;;;;;;;;;;5322794;26;96695;-44
2024/04/11 04:15:24;;;;;;;8.85;1.15;;;;;;;;;;5328892;26;97264;-45
2024/04/11 04:17:51;;;;;;;7.90;0.90;;;;;;;;;;5331113;26;95872;-45
2024/04/11 04:20:16;;;;;;;4.38;0.70;;;;;;;;;;5321321;26;96643;-44
2024/04/11 04:22:42;;;;;;;4.25;0.85;;;;;;;;;;5332271;26;95851;-45
2024/04/11 04:25:11;;;;;;;7.00;0.70;;;;;;;;;;5328659;26;96054;-44
2024/04/11 04:27:37;;;;;;;6.13;0.70;;;;;;;;;;5330855;26;96601;-45
2024/04/11 04:30:09;;;;;;;5.38;1.00;;;;;;;;;;5306894;26;95796;-45
2024/04/11 04:32:37;;;;;;;7.68;0.93;;;;;;;;;;5325192;26;97978;-45
2024/04/11 04:35:09;;;;;;;4.68;0.82;;;;;;;;;;5326358;26;95885;-45
2024/04/11 04:37:35;;;;;;;4.53;0.70;;;;;;;;;;5322353;26;96134;-45
2024/04/11 04:40:00;;;;;;;4.55;0.75;;;;;;;;;;5329118;26;95994;-44
2024/04/11 04:42:26;;;;;;;4.63;0.73;;;;;;;;;;5332230;26;96142;-44
2024/04/11 04:44:54;;;;;;;5.43;0.80;;;;;;;;;;5330608;26;96075;-45
2024/04/11 04:47:28;;;;;;;4.63;1.00;;;;;;;;;;5321486;26;96144;-53
2024/04/11 04:49:55;;;;;;;5.75;1.17;;;;;;;;;;5328657;26;95716;-53
2024/04/11 04:52:24;;;;;;;4.30;1.10;;;;;;;;;;5322198;26;95588;-45
2024/04/11 04:54:52;;;;;;;3.67;0.77;;;;;;;;;;5319275;26;98512;-44
2024/04/11 04:57:19;;;;;;;3.63;0.98;;;;;;;;;;5319673;26;97066;-44
2024/04/11 04:59:45;;;;;;;3.08;0.85;;;;;;;;;;5329212;26;95983;-45
2024/04/11 05:02:10;;;;;;;3.58;0.90;;;;;;;;;;5330203;26;97753;-44
2024/04/11 05:04:37;;;;;;;3.40;1.05;;;;;;;;;;5320490;26;96419;-46
2024/04/11 05:07:04;;;;;;;8.70;1.23;;;;;;;;;;5315199;26;96163;-47
2024/04/11 05:09:29;;;;;;;6.75;1.00;;;;;;;;;;5322235;26;97906;-47
2024/04/11 05:11:55;;;;;;;8.85;1.38;;;;;;;;;;5329723;26;98547;-47
2024/04/11 05:14:20;;;;;;;4.03;0.88;;;;;;;;;;5320785;26;96740;-47
2024/04/11 05:16:46;;;;;;;3.80;0.95;;;;;;;;;;5321875;26;97308;-49
2024/04/11 05:19:15;;;;;;;3.75;1.23;;;;;;;;;;5322693;26;98112;-51
2024/04/11 05:21:41;;;;;;;5.63;1.50;;;;;;;;;;5328078;26;97043;-47
2024/04/11 05:24:09;;;;;;;2.75;0.93;;;;;;;;;;5332405;26;95697;-47
2024/04/11 05:26:35;;;;;;;5.57;1.40;;;;;;;;;;5334868;26;95918;-47
2024/04/11 05:29:01;;;;;;;5.30;1.30;;;;;;;;;;5328289;26;95530;-46
2024/04/11 05:31:27;;;;;;;7.10;1.10;;;;;;;;;;5329478;26;97318;-47
2024/04/11 05:33:54;;;;;;;5.57;1.30;;;;;;;;;;5331751;26;97641;-46
2024/04/11 05:36:24;;;;;;;7.60;1.33;;;;;;;;;;5322866;26;96428;-48
2024/04/11 05:38:51;;;;;;;7.55;1.45;;;;;;;;;;5331071;26;96048;-49
2024/04/11 05:41:16;;;;;;;4.70;1.05;;;;;;;;;;5324094;26;96309;-47
2024/04/11 05:43:42;;;;;;;4.63;1.13;;;;;;;;;;5320338;26;95965;-47
2024/04/11 05:46:11;;;;;;;4.05;0.93;;;;;;;;;;5322707;26;98052;-46
2024/04/11 05:48:37;;;;;;;4.00;1.17;;;;;;;;;;5327363;26;96248;-47
2024/04/11 05:51:05;;;;;;;7.55;1.02;;;;;;;;;;5314796;26;97886;-47
2024/04/11 05:53:36;;;;;;;5.15;1.17;;;;;;;;;;5319689;26;96207;-51
2024/04/11 05:56:03;;;;;;;12.77;1.75;;;;;;;;;;5320467;26;96485;-48
2024/04/11 05:58:29;;;;;;;5.20;1.50;;;;;;;;;;5327761;26;95989;-48
2024/04/11 06:00:56;;;;;;;9.77;1.77;;;;;;;;;;5311177;26;96175;-54
2024/04/11 06:03:21;;;;;;;6.93;2.15;;;;;;;;;;5329028;26;96156;-53
2024/04/11 06:05:46;;;;;;;5.93;2.10;;;;;;;;;;5334925;26;96003;-53
2024/04/11 06:08:12;;;;;;;5.78;1.80;;;;;;;;;;5334858;26;96044;-53
2024/04/11 06:10:38;;;;;;;5.85;1.92;;;;;;;;;;5342175;26;97672;-55
2024/04/11 06:13:03;;;;;;;4.55;1.65;;;;;;;;;;5280605;26;97480;-56
2024/04/11 06:15:29;;;;;;;7.20;2.42;;;;;;;;;;5325504;26;96433;-53
2024/04/11 06:17:54;;;;;;;5.55;2.03;;;;;;;;;;5329080;26;96059;-48
2024/04/11 06:20:24;;;;;;;6.97;2.13;;;;;;;;;;5333797;26;96246;-48
2024/04/11 06:22:52;;;;;;;6.85;2.58;;;;;;;;;;5316785;26;96958;-54
2024/04/11 06:25:21;;;;;;;5.13;2.00;;;;;;;;;;5334840;26;96053;-54
2024/04/11 06:27:47;;;;;;;6.00;2.03;;;;;;;;;;5313653;26;97620;-54
2024/04/11 06:30:14;;;;;;;7.32;2.17;;;;;;;;;;5321264;26;95784;-54
2024/04/11 06:32:42;;;;;;;7.43;2.90;;;;;;;;;;5330578;26;96681;-52
2024/04/11 06:35:08;;;;;;;5.22;2.00;;;;;;;;;;5332114;26;96904;-52
2024/04/11 06:37:35;;;;;;;7.07;2.47;;;;;;;;;;5333472;26;95987;-53
2024/04/11 06:40:08;;;;;;;5.90;1.90;;;;;;;;;;5328321;26;96205;-53
2024/04/11 06:42:40;;;;;;;4.90;1.98;;;;;;;;;;5333961;26;96254;-52
2024/04/11 06:45:08;;;;;;;4.50;2.15;;;;;;;;;;5331619;26;95976;-52
2024/04/11 06:47:34;;;;;;;5.72;2.47;;;;;;;;;;5330889;26;96179;-47
2024/04/11 06:49:59;;;;;;;6.28;1.83;;;;;;;;;;5333513;26;97206;-49
2024/04/11 06:52:24;;;;;;;6.70;2.40;;;;;;;;;;5336777;26;96126;-52
2024/04/11 06:54:50;;;;;;;6.28;2.17;;;;;;;;;;5331779;26;97211;-53
2024/04/11 06:57:21;;;;;;;6.68;1.77;;;;;;;;;;5333369;26;95933;-53
2024/04/11 06:59:49;;;;;;;8.57;1.75;;;;;;;;;;5333574;26;96167;-52
2024/04/11 07:02:15;;;;;;;6.85;1.38;;;;;;;;;;5332229;26;95831;-52
2024/04/11 07:04:42;;;;;;;5.43;1.63;;;;;;;;;;5332049;26;96088;-52
2024/04/11 07:07:08;;;;;;;3.75;1.65;;;;;;;;;;5330848;26;98033;-52
2024/04/11 07:09:42;;;;;;;3.63;1.38;;;;;;;;;;5333567;26;95906;-53
2024/04/11 07:12:10;;;;;;;8.32;1.60;;;;;;;;;;5331427;26;96086;-52
2024/04/11 07:14:40;;;;;;;4.25;1.75;;;;;;;;;;5334972;26;98154;-52
2024/04/11 07:17:11;;;;;;;8.90;1.80;;;;;;;;;;5333255;26;96280;-53
2024/04/11 07:19:42;;;;;;;4.45;1.50;;;;;;;;;;5331067;26;98089;-51
2024/04/11 07:22:09;;;;;;;3.65;1.10;;;;;;;;;;5321159;26;97515;-55
2024/04/11 07:24:36;;;;;;;2.85;1.25;;;;;;;;;;5333901;26;96017;-51
2024/04/11 07:27:03;;;;;;;5.22;1.80;;;;;;;;;;5332859;26;96125;-53
2024/04/11 07:29:29;;;;;;;3.35;1.23;;;;;;;;;;5315240;26;97817;-52
2024/04/11 07:31:55;;;;;;;4.68;1.58;;;;;;;;;;5332888;26;96053;-51
2024/04/11 07:34:23;;;;;;;2.03;0.90;;;;;;;;;;5333288;26;97819;-51
2024/04/11 07:36:51;;;;;;;2.40;0.90;;;;;;;;;;5337259;26;96215;-50
2024/04/11 07:39:17;;;;;;;4.65;1.30;;;;;;;;;;5329186;26;96199;-52
2024/04/11 07:41:45;;;;;;;3.15;1.05;;;;;;;;;;5335336;26;95847;-53
2024/04/11 07:44:17;;;;;;;2.72;1.30;;;;;;;;;;5335414;26;95955;-52
2024/04/11 07:46:43;;;;;;;2.60;0.82;;;;;;;;;;5331960;26;96112;-51
2024/04/11 07:49:09;;;;;;;3.03;0.90;;;;;;;;;;5320490;26;95903;-52
2024/04/11 07:51:36;;;;;;;3.05;0.93;;;;;;;;;;5335558;26;96148;-53
2024/04/11 07:54:04;;;;;;;2.17;0.73;;;;;;;;;;5326244;26;96108;-50
2024/04/11 07:56:30;;;;;;;1.83;0.70;;;;;;;;;;5333334;26;95896;-52
2024/04/11 07:58:56;;;;;;;2.85;0.90;;;;;;;;;;5336158;26;95966;-51
2024/04/11 08:01:31;;;;;;;2.67;0.80;;;;;;;;;;5325018;26;95903;-52
2024/04/11 08:04:01;;;;;;;7.05;1.10;;;;;;;;;;5325293;26;97204;-51
2024/04/11 08:06:31;;;;;;;5.97;0.75;;;;;;;;;;5340341;26;96290;-54
2024/04/11 08:08:57;;;;;;;3.17;0.80;;;;;;;;;;5293935;26;95953;-52
2024/04/11 08:11:23;;;;;;;2.25;0.63;;;;;;;;;;5329299;26;96041;-51
2024/04/11 08:13:49;;;;;;;1.08;0.60;;;;;;;;;;5313980;26;96348;-53
2024/04/11 08:16:15;;;;;;;2.45;0.82;;;;;;;;;;5330812;26;95680;-48
2024/04/11 08:18:40;;;;;;;1.65;0.77;;;;;;;;;;5336523;26;95928;-49
2024/04/11 08:21:09;;;;;;;1.70;0.90;;;;;;;;;;5334336;26;96285;-50
2024/04/11 08:23:39;;;;;;;2.53;0.85;;;;;;;;;;5331239;26;96028;-52
2024/04/11 08:26:05;;;;;;;4.22;1.10;;;;;;;;;;5328148;26;96646;-51
2024/04/11 08:28:30;;;;;;;6.80;1.15;;;;;;;;;;5325248;26;96306;-52
2024/04/11 08:30:56;;;;;;;1.85;0.98;;;;;;;;;;5324439;26;97041;-52
2024/04/11 08:33:22;;;;;;;3.80;0.70;;;;;;;;;;5319019;26;96089;-50
2024/04/11 08:35:47;;;;;;;3.17;0.60;;;;;;;;;;5324109;26;95751;-48
2024/04/11 08:38:15;;;;;;;20.15;1.30;;;;;;;;;;5319708;26;96057;-49
2024/04/11 08:40:44;;;;;;;1.27;0.60;;;;;;;;;;5334176;26;97910;-52
2024/04/11 08:43:15;;;;;;;5.77;0.80;;;;;;;;;;5318391;26;95983;-48
2024/04/11 08:45:42;;;;;;;1.75;0.60;;;;;;;;;;5321579;26;95999;-50
2024/04/11 08:48:07;;;;;;;3.00;0.70;;;;;;;;;;5320390;26;95974;-50
2024/04/11 08:50:34;;;;;;;1.90;0.73;;;;;;;;;;5315115;26;97640;-54
2024/04/11 08:53:00;;;;;;;21.85;2.20;;;;;;;;;;5324097;26;96120;-52
2024/04/11 08:55:26;;;;;;;0.90;0.50;;;;;;;;;;5331895;26;96257;-52
2024/04/11 08:57:52;;;;;;;1.88;0.80;;;;;;;;;;5330570;26;96005;-51
2024/04/11 09:00:24;;;;;;;1.52;0.50;;;;;;;;;;5303817;26;96222;-50
2024/04/11 09:02:51;;;;;;;0.93;0.50;;;;;;;;;;5332131;26;95725;-51
2024/04/11 09:05:16;;;;;;;1.45;0.60;;;;;;;;;;5327405;26;96132;-50
2024/04/11 09:07:46;;;;;;;3.08;0.52;;;;;;;;;;5327818;26;96151;-51
2024/04/11 09:10:12;;;;;;;;;;;;;;;;;;5322911;26;96195;-51
2024/04/11 09:12:42;;;;;;;1.45;0.43;;;;;;;;;;5326425;26;97924;-48
2024/04/11 09:15:08;;;;;;;;;;;;;;;;;;5329338;26;96020;-48
2024/04/11 09:17:40;;;;;;;9.93;0.68;;;;;;;;;;5314858;26;97024;-51
2024/04/11 09:20:12;;;;;;;1.75;0.40;;;;;;;;;;5316125;26;96107;-50
2024/04/11 09:22:38;;;;;;;1.88;0.40;;;;;;;;;;5327007;26;95896;-48
2024/04/11 09:25:05;;;;;;;1.05;0.40;;;;;;;;;;5337785;26;96160;-48
2024/04/11 09:27:30;;;;;;;2.25;0.40;;;;;;;;;;5332994;26;95938;-51
2024/04/11 09:29:57;;;;;;;3.13;0.60;;;;;;;;;;5333743;26;96092;-51
2024/04/11 09:32:24;;;;;;;0.90;0.50;;;;;;;;;;5331853;26;95970;-51
2024/04/11 09:34:53;;;;;;;0.82;0.30;;;;;;;;;;5337500;26;96034;-50
2024/04/11 09:37:23;;;;;;;2.57;0.90;;;;;;;;;;5300631;26;97544;-50
2024/04/11 09:39:56;;;;;;;1.13;0.90;;;;;;;;;;5331708;26;97259;-49
2024/04/11 09:42:25;;;;;;;2.00;0.30;;;;;;;;;;5315037;26;96027;-50
2024/04/11 09:44:53;;;;;;;12.93;0.52;;;;;;;;;;5336133;26;96059;-50
2024/04/11 09:47:31;;;;;;;2.03;0.30;;;;;;;;;;5320469;26;97704;-49
2024/04/11 09:49:59;;;;;;;1.75;0.60;;;;;;;;;;5336521;26;96044;-48
2024/04/11 09:52:27;;;;;;;0.73;0.30;;;;;;;;;;5334871;26;97436;-50
2024/04/11 09:55:02;;;;;;;1.60;0.30;;;;;;;;;;5325307;26;98120;-52
2024/04/11 09:57:29;;;;;;;0.85;0.40;;;;;;;;;;5318716;26;96414;-47
2024/04/11 09:59:57;;;;;;;1.80;0.47;;;;;;;;;;5304449;26;97330;-48
2024/04/11 10:02:24;;;;;;;0.65;0.30;;;;;;;;;;5329628;26;95835;-52
2024/04/11 10:04:56;;;;;;;9.50;1.27;;;;;;;;;;5321781;26;96036;-53
2024/04/11 10:07:25;;;;;;;4.00;0.50;;;;;;;;;;5320509;26;96118;-47
2024/04/11 10:09:52;;;;;;;0.98;0.77;;;;;;;;;;5302610;26;95803;-48
2024/04/11 10:12:19;;;;;;;4.55;0.70;;;;;;;;;;5291225;26;96153;-52
2024/04/11 10:15:18;;;;;;;1.10;0.50;;;;;;;;;;5293751;26;95896;-50
2024/04/11 10:18:11;;;;;;;2.13;0.60;;;;;;;;;;5279396;26;96000;-47
2024/04/11 10:20:59;;;;;;;1.42;0.80;;;;;;;;;;5297509;26;97770;-48
2024/04/11 10:23:25;;;;;;;2.20;1.30;;;;;;;;;;5301952;26;96131;-53
2024/04/11 10:25:50;;;;;;;2.10;1.00;;;;;;;;;;5295861;26;95892;-51
2024/04/11 10:28:16;;;;;;;2.28;1.10;;;;;;;;;;5288127;26;98344;-51
2024/04/11 10:30:50;;;;;;;1.73;0.80;;;;;;;;;;5299452;26;97469;-50
2024/04/11 10:33:29;;;;;;;2.72;1.17;;;;;;;;;;5291408;26;97411;-50
2024/04/11 10:35:56;;;;;;;2.63;0.63;;;;;;;;;;5271915;26;98015;-50
2024/04/11 10:38:27;;;;;;;2.53;0.68;;;;;;;;;;5296329;26;95996;-50
2024/04/11 10:40:53;;;;;;;2.58;0.80;;;;;;;;;;5288074;26;96704;-53
2024/04/11 10:43:27;;;;;;;1.60;0.55;;;;;;;;;;5293033;26;95747;-50
2024/04/11 10:45:55;;;;;;;0.85;0.45;;;;;;;;;;5291956;26;95968;-50
2024/04/11 10:48:24;;;;;;;1.20;0.50;;;;;;;;;;5295669;26;96236;-50
2024/04/11 10:50:49;;;;;;;0.82;0.43;;;;;;;;;;5285551;26;97981;-49
2024/04/11 10:53:20;;;;;;;1.45;0.50;;;;;;;;;;5282550;26;96608;-48
2024/04/11 10:55:46;;;;;;;1.17;0.43;;;;;;;;;;5291568;26;95765;-50
2024/04/11 10:58:22;;;;;;;2.35;0.43;;;;;;;;;;5295342;26;96527;-50
2024/04/11 11:03:44;;;;;;;1.58;0.55;;;;;;;;;;5282665;26;95618;-47
2024/04/11 11:06:24;;;;;;;1.30;0.50;;;;;;;;;;5290279;26;98857;-52
2024/04/11 11:08:54;;;;;;;1.85;0.60;;;;;;;;;;5285949;26;96191;-53
2024/04/11 11:11:21;;;;;;;1.38;0.50;;;;;;;;;;5293620;26;95555;-52
2024/04/11 11:13:47;;;;;;;1.70;0.50;;;;;;;;;;5290687;26;96142;-49
2024/04/11 11:16:21;;;;;;;0.73;0.40;;;;;;;;;;5303476;26;97549;-50
2024/04/11 11:18:51;;;;;;;13.80;0.65;;;;;;;;;;5283148;26;96668;-49
2024/04/11 11:21:19;;;;;;;0.80;0.20;;;;;;;;;;5282613;26;97312;-50
2024/04/11 11:23:45;;;;;;;1.35;0.30;;;;;;;;;;5296594;26;96653;-49
2024/04/11 11:26:20;;;;;;;0.57;0.20;;;;;;;;;;5300340;26;96099;-50
2024/04/11 11:28:46;;;;;;;1.38;0.40;;;;;;;;;;5288293;26;96174;-50
2024/04/11 11:31:20;;;;;;;12.02;0.40;;;;;;;;;;5288062;26;95655;-51
2024/04/11 11:33:53;;;;;;;0.70;0.40;;;;;;;;;;5288857;26;96027;-50
2024/04/11 11:36:19;;;;;;;0.65;0.30;;;;;;;;;;5292644;26;96224;-54
2024/04/11 11:38:44;;;;;;;1.00;0.50;;;;;;;;;;5278386;26;96009;-52
2024/04/11 11:41:15;;;;;;;0.82;0.47;;;;;;;;;;5288024;26;96116;-52
2024/04/11 11:43:44;;;;;;;0.93;0.30;;;;;;;;;;5290187;26;98158;-51
2024/04/11 11:46:26;;;;;;;3.13;0.40;;;;;;;;;;5293444;26;98142;-54
2024/04/11 11:48:54;;;;;;;0.88;0.30;;;;;;;;;;5287323;26;96211;-53
2024/04/11 11:51:28;;;;;;;0.77;0.45;;;;;;;;;;5287106;26;98107;-52
2024/04/11 11:53:57;;;;;;;1.55;0.63;;;;;;;;;;5296142;26;96038;-52
2024/04/11 11:56:22;;;;;;;0.70;0.33;;;;;;;;;;5295565;26;96622;-51
2024/04/11 11:58:50;;;;;;;1.90;0.40;;;;;;;;;;5292593;26;96305;-51
2024/04/11 12:03:59;;;;;;;12.70;0.65;;;;;;;;;;5276254;26;96225;-53
2024/04/11 12:06:33;;;;;;;0.60;0.30;;;;;;;;;;5287694;26;97522;-53
2024/04/11 12:09:00;;;;;;;1.48;0.40;;;;;;;;;;5291558;26;96195;-52
2024/04/11 12:11:29;;;;;;;1.05;0.30;;;;;;;;;;5294753;26;97970;-52
2024/04/11 12:14:02;;;;;;;1.42;0.32;;;;;;;;;;5296291;26;96094;-51
2024/04/11 12:16:38;;;;;;;1.65;0.20;;;;;;;;;;5292783;26;96672;-51
2024/04/11 12:19:04;;;;;;;1.58;0.32;;;;;;;;;;5295226;26;95787;-53
2024/04/11 12:21:37;;;;;;;0.50;0.30;;;;;;;;;;5290276;26;97285;-53
2024/04/11 12:24:03;;;;;;;9.60;1.08;;;;;;;;;;5298390;26;95629;-50
2024/04/11 12:26:32;;;;;;;3.42;0.35;;;;;;;;;;5284481;26;96423;-51
2024/04/11 12:28:58;;;;;;;;;;;;;;;;;;5281849;26;97642;-50
2024/04/11 12:31:27;;;;;;;1.50;0.30;;;;;;;;;;5295755;26;96053;-50
2024/04/11 12:33:56;;;;;;;2.10;0.30;;;;;;;;;;5275686;26;96120;-53
2024/04/11 12:39:21;;;;;;;0.93;0.30;;;;;;;;;;5299035;26;96134;-53
2024/04/11 12:41:47;;;;;;;0.63;0.20;;;;;;;;;;5292478;26;96144;-51
2024/04/11 12:44:12;;;;;;;0.82;0.30;;;;;;;;;;5287454;26;97524;-52
2024/04/11 12:46:39;;;;;;;3.50;0.30;;;;;;;;;;5298117;26;97961;-54
2024/04/11 12:49:15;;;;;;;0.82;0.30;;;;;;;;;;5297737;26;96135;-52
2024/04/11 12:51:40;;;;;;;1.15;0.30;;;;;;;;;;5296172;26;95749;-52
2024/04/11 12:54:06;;;;;;;0.75;0.30;;;;;;;;;;5298711;26;96056;-51
2024/04/11 12:56:33;;;;;;;1.75;0.40;;;;;;;;;;5296707;26;97262;-52
2024/04/11 12:59:05;;;;;;;1.45;0.28;;;;;;;;;;5296881;26;98014;-51
2024/04/11 13:01:32;;;;;;;1.65;0.50;;;;;;;;;;5290799;26;96196;-52
2024/04/11 13:03:58;;;;;;;1.42;0.30;;;;;;;;;;5278471;26;96306;-52
2024/04/11 13:06:37;;;;;;;2.28;0.57;;;;;;;;;;5292370;26;95973;-52
2024/04/11 13:09:18;;;;;;;0.95;0.43;;;;;;;;;;5291818;26;96215;-51
2024/04/11 13:11:48;;;;;;;1.77;0.73;;;;;;;;;;5269762;26;97406;-52
2024/04/11 13:14:17;;;;;;;3.40;0.50;;;;;;;;;;5289797;26;96189;-51
2024/04/11 13:16:45;;;;;;;0.77;0.50;;;;;;;;;;5281447;26;95982;-51
2024/04/11 13:19:19;;;;;;;0.60;0.30;;;;;;;;;;5290204;26;97036;-50
2024/04/11 13:21:53;;;;;;;2.20;0.47;;;;;;;;;;5289201;26;96055;-48
2024/04/11 13:24:20;;;;;;;2.90;0.60;;;;;;;;;;5296567;26;96770;-48
2024/04/11 13:26:56;;;;;;;2.22;0.60;;;;;;;;;;5277966;26;97914;-52
2024/04/11 13:29:23;;;;;;;1.55;0.57;;;;;;;;;;5290502;26;96173;-52
2024/04/11 13:31:51;;;;;;;1.60;0.63;;;;;;;;;;5297304;26;95731;-52
2024/04/11 13:34:34;;;;;;;24.73;6.80;;;;;;;;;;5295837;26;96107;-50
2024/04/11 13:37:03;;;;;;;12.63;4.35;;;;;;;;;;5271626;26;96282;-54
2024/04/11 13:39:30;;;;;;;9.80;3.25;;;;;;;;;;5296320;26;96003;-51
2024/04/11 13:41:56;;;;;;;21.30;4.53;;;;;;;;;;5289061;26;96224;-52
2024/04/11 13:44:22;;;;;;;11.25;3.13;;;;;;;;;;5281465;26;96206;-50
2024/04/11 13:46:50;;;;;;;14.68;4.18;;;;;;;;;;5280781;26;95978;-51
2024/04/11 13:49:30;;;;;;;10.23;3.88;;;;;;;;;;5277960;26;96257;-55
2024/04/11 13:51:55;;;;;;;;;;;;;;;;;;5288150;26;97337;-51
2024/04/11 13:54:23;;;;;;;1.52;0.50;;;;;;;;;;5287731;26;96246;-51
2024/04/11 13:56:59;;;;;;;2.15;0.65;;;;;;;;;;5286784;26;97766;-52
2024/04/11 13:59:30;;;;;;;1.65;0.60;;;;;;;;;;5284371;26;96054;-54
2024/04/11 14:01:59;;;;;;;11.52;1.48;;;;;;;;;;5292031;26;96126;-53
2024/04/11 14:04:44;;;;;;;4.03;0.60;;;;;;;;;;5284704;26;97270;-52
2024/04/11 14:07:11;;;;;;;2.15;0.40;;;;;;;;;;5265195;26;96087;-54
2024/04/11 14:09:41;;;;;;;1.92;0.50;;;;;;;;;;5291158;26;98173;-51
2024/04/11 14:12:10;;;;;;;6.53;0.47;;;;;;;;;;5289111;26;96365;-57
2024/04/11 14:14:36;;;;;;;1.70;0.40;;;;;;;;;;5292205;26;96878;-57
2024/04/11 14:17:06;;;;;;;1.40;0.80;;;;;;;;;;5290529;26;96190;-58
2024/04/11 14:19:38;;;;;;;8.77;0.85;;;;;;;;;;5296967;26;97557;-57
2024/04/11 14:22:26;;;;;;;1.33;0.90;;;;;;;;;;5298612;26;96047;-58
2024/04/11 14:27:38;;;;;;;2.05;0.50;;;;;;;;;;5296640;26;95973;-57
2024/04/11 14:30:04;;;;;;;3.03;0.50;;;;;;;;;;5294320;26;96093;-56
2024/04/11 14:38:07;;;;;;;0.75;0.30;;;;;;;;;;5296883;26;97764;-53
2024/04/11 14:40:36;;;;;;;2.45;0.70;;;;;;;;;;5292154;26;95722;-54
2024/04/11 14:43:09;;;;;;;3.78;0.63;;;;;;;;;;5295368;26;96548;-53
2024/04/11 14:45:39;;;;;;;0.98;0.50;;;;;;;;;;5293710;26;96798;-54
2024/04/11 14:48:18;;;;;;;0.77;0.30;;;;;;;;;;5296649;26;96946;-54
2024/04/11 14:50:46;;;;;;;5.20;0.80;;;;;;;;;;5295675;26;96112;-54
2024/04/11 14:53:16;;;;;;;2.45;1.15;;;;;;;;;;5289489;26;96117;-54
2024/04/11 14:55:42;;;;;;;2.45;0.70;;;;;;;;;;5285192;26;96182;-54
2024/04/11 14:58:11;;;;;;;1.67;0.60;;;;;;;;;;5296351;26;97906;-52
2024/04/11 15:00:59;;;;;;;1.50;0.50;;;;;;;;;;5294502;26;95894;-55
2024/04/11 15:03:30;;;;;;;1.55;0.70;;;;;;;;;;5294230;26;97214;-55
2024/04/11 15:05:56;;;;;;;3.75;0.90;;;;;;;;;;5296831;26;96289;-52